KAC295 LGAV-OKKK
Flight info
| Callsign | KAC295 |
|---|---|
| Flight time | N/A |
| Altitude | 39000 |
| Route | KRO UG33 NEVRA DCT KOPAR UL995 RDS UL609 ALKIS L609 APLON DCT DESPO DCT CAK DCT LATEB DCT BASEM DCT ABBAS DCT KUMLO DCT DAXAN DCT AAR DCT PAXAN Q255 LUDEP P559 RASMO L550 NIDAP DCT SOROR |
| Aircraft | A332/H-SDE3GHIJ2J3J5M1RVWXY/LB2D1 |
Departure
| Time | 2026-05-04 09:51 |
|---|---|
| Airport | Athens Eleftherios Venizelos International Airport (LGAV) |
Arrival
| Time | N/A |
|---|---|
| Airport | Kuwait International Airport (OKKK) |
| Time | Latitude | Longitude | Altitude | Speed | Heading |
|---|---|---|---|---|---|
| 2026-05-04 09:40 | 37.93516 | 23.94755 | 288 ft | 0 kts | 309° |
| 2026-05-04 09:46 | 37.93490 | 23.94866 | 295 ft | 1 kts | 217° |
| 2026-05-04 09:49 | 37.92911 | 23.94580 | 295 ft | 36 kts | 220° |
| 2026-05-04 09:49 | 37.92679 | 23.94357 | 298 ft | 44 kts | 217° |
| 2026-05-04 09:49 | 37.92464 | 23.94168 | 302 ft | 24 kts | 187° |
| 2026-05-04 09:51 | 37.94344 | 23.96204 | 377 ft | 182 kts | 34° |
| 2026-05-04 09:51 | 37.95458 | 23.97252 | 718 ft | 213 kts | 37° |
| 2026-05-04 09:51 | 37.96269 | 23.98030 | 1031 ft | 228 kts | 35° |
| 2026-05-04 09:51 | 37.97586 | 23.99289 | 1614 ft | 246 kts | 34° |
| 2026-05-04 09:52 | 37.98979 | 24.00651 | 2239 ft | 259 kts | 37° |
| 2026-05-04 09:52 | 38.00848 | 24.02685 | 3147 ft | 274 kts | 37° |
| 2026-05-04 09:52 | 38.02337 | 24.04127 | 4255 ft | 263 kts | 33° |
| 2026-05-04 09:52 | 38.03784 | 24.05463 | 5508 ft | 251 kts | 33° |
| 2026-05-04 09:53 | 38.04722 | 24.06335 | 6349 ft | 244 kts | 33° |
| 2026-05-04 09:53 | 38.06048 | 24.07583 | 7553 ft | 232 kts | 33° |
| 2026-05-04 09:53 | 38.07296 | 24.08773 | 8656 ft | 224 kts | 34° |
| 2026-05-04 09:53 | 38.08395 | 24.10174 | 9661 ft | 227 kts | 51° |
| 2026-05-04 09:54 | 38.08945 | 24.12090 | 10462 ft | 241 kts | 80° |
| 2026-05-04 09:54 | 38.08717 | 24.14249 | 11170 ft | 253 kts | 101° |
| 2026-05-04 09:54 | 38.08169 | 24.16399 | 11897 ft | 258 kts | 104° |